Station info - map view · info · telemetry · weather · raw · status · beacons · messages · bulletins · browse · moving · my account
Callsign, ship name or locator: Clear       
It is possible to search using wildcards (*?) after a prefix. Example: OH*
APRS station KB9YVN-14 - show graphs
Map loading...
Comment: !SN!
Mic-E message: In service
Location: 39°58.16' N 83°43.32' W - locator EM89DX32IP - show map - static map
3.4 miles Southeast bearing 117° from Northridge, Clark County, Ohio, United States [?]
9.7 miles South bearing 170° from Urbana, Champaign County, Ohio, United States
38.3 miles West bearing 271° from Columbus, Franklin County, Ohio, United States
68.1 miles Northeast bearing 35° from Cincinnati, Hamilton County, Ohio, United States
Last position: 2017-05-20 20:29:05 EDT (7d 15h54m ago)
2017-05-20 20:29:05 EDT local time at Northridge, United States [?]
Altitude: 1060 ft
Course: 267°
Speed: 36 MPH
Device: Kenwood: TM-D700 (rig)
Last path: KB9YVN-14>S9UX1V via W8OG,WIDE1*,WIDE2-1,qAR,NR8I-3 (good)
Positions stored: 73161
Other SSIDs: KB9YVN KB9YVN-7 KB9YVN-9
Stations near current position of KB9YVN-14 - show more
callsign distance last heard - EDT      callsign distance last heard - EDT
DK8OT-71.9 miles 264°2017-05-21 12:54:37 EW80533.1 miles 279°2017-05-28 12:18:37
KV3W-74.2 miles 171°2017-05-17 16:59:22 N8WEL4.7 miles 210°2017-05-28 12:14:24
CW14874.8 miles 247°2017-05-28 12:15:01 KA8OCG-95.4 miles 222°2017-05-27 22:38:56
K8GI-95.5 miles 236°2017-05-18 19:07:56 K8KVN-15.5 miles 236°2017-05-27 19:07:11
K8SRB-95.6 miles 305°2017-05-28 12:21:54 K8MJ B5.7 miles 240°2017-05-28 12:10:36
K8MJ-B5.7 miles 240°2017-05-28 12:10:46 LA3NUA-66.9 miles 221°2017-05-22 20:20:05
K0NR-77.0 miles 223°2017-05-20 19:54:18 N4BOZ7.0 miles 221°2017-05-21 06:51:56
W9SAR-57.0 miles 221°2017-05-20 21:07:04 K0NR-57.1 miles 223°2017-05-20 07:25:16
N8JE7.2 miles 246°2017-05-28 12:22:24 K8CJE7.2 miles 246°2017-05-27 18:18:34
DK8OL7.2 miles 224°2017-05-19 21:02:59 K5ARB-17.2 miles 349°2017-05-19 15:43:52
Stations which heard KB9YVN-14 directly on radio –
callsign pkts first heard - EDT last heard longest (tx => rx) longest at - EDT
WA9RES 15 2017-05-18 17:37:24 2017-05-18 18:09:11 EN50PG > EN50UF 20.7 miles 101° 2017-05-18 17:37:24
KB9YVN 25 2017-05-18 13:44:28 2017-05-18 16:49:12 EN50IO > EN50FR 16.5 miles 297° 2017-05-18 16:49:12
N9AMN-2 5 2017-05-18 19:50:45 2017-05-18 20:08:19 EM69UT > EM69WR 11.7 miles 131° 2017-05-18 19:50:45
K9APR-5 6 2017-05-18 20:45:17 2017-05-18 21:00:41 EM79HU > EM79LV 19.9 miles 83° 2017-05-18 20:45:17
N9HWO 3 2017-05-18 13:46:30 2017-05-18 13:56:49 EN50GQ > EN40XN 31.2 miles 258° 2017-05-18 13:46:30
N9PE-2 22 2017-05-18 16:36:56 2017-05-18 17:22:03 EN50IP > EN50ML 22.3 miles 118° 2017-05-18 16:36:56
AB8DD 31 2017-05-18 22:27:45 2017-05-20 20:25:54 EM89BV > EN80DC 15.4 miles 22° 2017-05-18 22:27:45
N9AMN-3 11 2017-05-18 19:43:30 2017-05-18 20:18:34 EM69SV > EM69XV 21.6 miles 85° 2017-05-18 19:43:30
W8OG 48 2017-05-18 22:07:39 2017-05-20 20:29:05 EM79XU > EM89BW 12.1 miles 71° 2017-05-18 22:07:39
KI6SZ-2 5 2017-05-18 21:59:15 2017-05-18 22:19:13 EM79VU > EM79WT 8.7 miles 108° 2017-05-18 21:59:48
W9ICE-10 27 2017-05-18 19:29:16 2017-05-18 20:36:01 EM79ET > EM69VV 32.6 miles 278° 2017-05-18 20:36:01
W8VFR-2 4 2017-05-18 21:14:03 2017-05-18 21:17:07 EM79OT > EM79OU 2.2 miles 334° 2017-05-18 21:17:07
W8VFR-9 5 2017-05-18 21:18:09 2017-05-18 21:32:42 EM79SU > EM79QR 12.6 miles 230° 2017-05-18 21:32:42
W8VFR-5 1 2017-05-18 21:31:35 2017-05-18 21:31:35 EM79SU > EM79OM 27.3 miles 216° 2017-05-18 21:31:35
W8VFR-3 2 2017-05-18 21:38:01 2017-05-18 21:40:13 EM79SU > EM79TP 15.1 miles 165° 2017-05-18 21:40:13
W8VFR-4 5 2017-05-18 21:35:53 2017-05-18 21:49:48 EM79SU > EM79TR 7.2 miles 166° 2017-05-18 21:49:48
K9ADL-1 14 2017-05-18 18:11:14 2017-05-18 18:32:46 EN50XC > EN60CE 14.3 miles 77° 2017-05-18 18:11:14
N8VKX-10 8 2017-05-18 21:23:20 2017-05-18 21:48:36 EM79SU > EM79RU 6.6 miles 277° 2017-05-18 21:33:47
KS9N-10 7 2017-05-18 21:04:46 2017-05-18 21:12:00 EM79MU > EM79NT 5.6 miles 118° 2017-05-18 21:04:46
W8VFR-11 2 2017-05-18 20:54:29 2017-05-18 21:02:43 EM79JU > EM79NO 24.0 miles 138° 2017-05-18 20:54:29
W6PC-7 11 2017-05-18 16:25:39 2017-05-18 17:07:43 EN50LK > EN50GL 24.4 miles 272° 2017-05-18 17:07:43
W9YB-1 3 2017-05-18 18:54:15 2017-05-18 19:02:27 EN60KC > EN60NK 24.1 miles 29° 2017-05-18 18:54:15
WE9MA-3 15 2017-05-18 20:34:59 2017-05-18 21:01:43 EM79LU > EM79HW 17.7 miles 288° 2017-05-18 21:01:43
WB9CNE 16 2017-05-18 20:14:27 2017-05-18 20:32:55 EM69XT > EM79CT 12.1 miles 89° 2017-05-18 20:14:27
KD8LXB-10 5 2017-05-18 21:22:16 2017-05-18 21:50:59 EM79TU > EM79QR 11.7 miles 231° 2017-05-18 21:50:59
KC8RFE-1 11 2017-05-18 17:49:41 2017-05-18 18:03:01 EN50SF > EN50UC 10.3 miles 126° 2017-05-18 17:49:41
KC8RFE-2 5 2017-05-18 17:58:55 2017-05-18 18:16:22 EN60AC > EN50WH 18.1 miles 320° 2017-05-18 18:16:22
DMR 1392 2017-04-30 20:02:29 2017-05-05 09:53:55 EN50BQ > JN71EI 5045.9 miles 50° 2017-05-04 18:34:27
W8VFR-8 1 2017-05-18 21:19:11 2017-05-18 21:19:11 EM79PT > EM79QW 8.2 miles 42° 2017-05-18 21:19:11
KD8QFM-3 4 2017-05-18 21:56:09 2017-05-18 22:17:59 EM79XU > EM79VV 10.4 miles 283° 2017-05-18 22:17:59
KE0JMK-1 5 2017-05-18 22:00:15 2017-05-18 22:06:36 EM79VU > EM79WU 3.9 miles 100° 2017-05-18 22:00:15

Only position packets which were originated by the station are shown here. The range statistics show some extra long hops, because some digipeaters do not correctly add themselves to the digipeater path. Please check the raw packets.
About this site
This page shows real-time information collected from the Automatic Position Reporting System Internet network (APRS-IS). APRS is used by amateur (ham) radio operators to transmit real-time position information, weather data, telemetry and messages over the radio. A vehicle equipped with a GPS receiver, a VHF transmitter or HF transceiver and a small computer device called a tracker transmits it's location, speed and course in a small data packet, which is then received by a nearby iGate receiving site which forwards the packet on the Internet. Systems connected to the Internet can send information on the APRS-IS without a radio transmitter, or collect and display information transmitted anywhere in the world.
FAQ · Blog · Discussion group · Linking to aprs.fi · AIS sites · Service status · Database statistics · Advertising on aprs.fi · Technical details · API · Change log · Planned changes · Credits and thanks · Terms Of Service · iPhone/iPad APRS